createdAt,value
2023-04-07T00:00:20.629Z,11.00
2023-04-07T00:05:22.285Z,10.48
2023-04-07T00:10:24.833Z,9.63
2023-04-07T00:15:26.624Z,10.00
2023-04-07T00:20:28.418Z,9.90
2023-04-07T00:25:30.026Z,10.70
2023-04-07T00:30:31.673Z,9.07
2023-04-07T00:35:33.360Z,9.10
2023-04-07T00:40:35.028Z,9.25
2023-04-07T00:45:38.112Z,9.55
2023-04-07T00:50:40.021Z,8.95
2023-04-07T00:55:41.720Z,9.55
2023-04-07T01:00:55.396Z,9.80
2023-04-07T01:06:02.176Z,10.02
2023-04-07T01:11:13.319Z,9.27
2023-04-07T01:16:30.466Z,10.52
2023-04-07T01:21:35.164Z,9.60
2023-04-07T01:26:38.217Z,10.20
2023-04-07T01:31:42.109Z,9.57
2023-04-07T01:36:47.038Z,9.43
2023-04-07T01:41:50.824Z,8.98
2023-04-07T01:46:53.110Z,9.10
2023-04-07T01:51:56.100Z,9.23
2023-04-07T01:56:57.785Z,9.45
2023-04-07T02:02:00.647Z,10.10
2023-04-07T02:07:09.644Z,9.15
2023-04-07T02:12:17.404Z,8.93
2023-04-07T02:17:34.915Z,8.50
2023-04-07T02:22:38.579Z,9.15
2023-04-07T02:27:40.289Z,9.00
2023-04-07T02:32:42.097Z,8.43
2023-04-07T02:37:45.541Z,9.25
2023-04-07T02:42:48.394Z,9.25
2023-04-07T02:47:50.174Z,8.73
2023-04-07T02:52:52.991Z,8.88
2023-04-07T02:57:54.693Z,9.43
2023-04-07T03:03:10.189Z,8.90
2023-04-07T03:08:14.962Z,8.73
2023-04-07T03:13:19.122Z,8.38
2023-04-07T03:18:20.974Z,8.80
2023-04-07T03:23:24.036Z,8.88
2023-04-07T03:28:26.598Z,8.65
2023-04-07T03:33:29.604Z,8.75
2023-04-07T03:38:31.738Z,9.70
2023-04-07T03:43:37.006Z,8.70
2023-04-07T03:48:39.169Z,8.75
2023-04-07T03:53:43.277Z,8.90
2023-04-07T03:58:59.982Z,8.65
2023-04-07T04:04:06.442Z,8.80
2023-04-07T04:09:08.192Z,9.20
2023-04-07T04:14:14.450Z,9.02
2023-04-07T04:19:18.271Z,9.25
2023-04-07T04:24:20.196Z,8.80
2023-04-07T04:29:23.741Z,9.35
2023-04-07T04:34:27.611Z,9.73
2023-04-07T04:39:30.602Z,9.40
2023-04-07T04:44:33.081Z,10.00
2023-04-07T04:49:37.366Z,9.40
2023-04-07T04:54:39.682Z,9.25
2023-04-07T04:59:42.623Z,9.32
2023-04-07T05:04:44.492Z,9.70
2023-04-07T05:10:02.605Z,9.43
2023-04-07T05:15:07.278Z,10.23
2023-04-07T05:20:10.407Z,8.68
2023-04-07T05:25:15.083Z,9.70
2023-04-07T05:30:19.834Z,10.02
2023-04-07T05:35:21.602Z,9.50
2023-04-07T05:40:30.347Z,10.40
2023-04-07T05:45:35.595Z,9.88
2023-04-07T05:50:37.665Z,9.77
2023-04-07T05:55:43.809Z,9.50
2023-04-07T06:00:50.857Z,9.27
2023-04-07T06:05:53.596Z,9.00
2023-04-07T06:10:56.842Z,9.65
2023-04-07T06:15:58.705Z,9.40
2023-04-07T06:21:00.795Z,9.25
2023-04-07T06:26:02.493Z,9.60
2023-04-07T06:31:05.212Z,10.10
2023-04-07T06:36:07.602Z,9.05
2023-04-07T06:41:16.886Z,9.18
2023-04-07T06:46:19.308Z,8.70
2023-04-07T06:51:21.096Z,9.45
2023-04-07T06:56:23.300Z,8.45
2023-04-07T07:01:24.952Z,8.48
2023-04-07T07:06:27.482Z,8.63
2023-04-07T07:11:29.250Z,8.85
2023-04-07T07:16:31.136Z,9.32
2023-04-07T07:21:32.988Z,8.40
2023-04-07T07:26:34.642Z,8.95
2023-04-07T07:31:36.335Z,8.57
2023-04-07T07:36:38.056Z,8.70
2023-04-07T07:41:40.372Z,7.28
2023-04-07T07:46:42.033Z,8.68
2023-04-07T07:51:44.195Z,8.02
2023-04-07T07:56:45.842Z,6.82
2023-04-07T08:01:47.663Z,6.38
2023-04-07T08:06:50.886Z,7.32
2023-04-07T08:11:52.815Z,7.00
2023-04-07T08:16:54.661Z,7.07
2023-04-07T08:21:56.990Z,6.55
2023-04-07T08:26:58.672Z,5.95
2023-04-07T08:32:00.477Z,5.65
2023-04-07T08:37:02.799Z,5.78
2023-04-07T08:42:04.655Z,6.45
2023-04-07T08:47:08.030Z,5.68
2023-04-07T08:52:13.220Z,7.05
2023-04-07T08:57:16.629Z,7.03
2023-04-07T09:02:19.569Z,7.38
2023-04-07T09:07:21.365Z,6.82
2023-04-07T09:12:23.052Z,7.30
2023-04-07T09:17:29.159Z,6.53
2023-04-07T09:22:47.252Z,6.38
2023-04-07T09:27:59.419Z,7.68
2023-04-07T09:33:02.066Z,7.43
2023-04-07T09:38:03.747Z,7.90
2023-04-07T09:43:06.467Z,7.63
2023-04-07T09:48:19.385Z,7.07
2023-04-07T09:53:23.267Z,6.82
2023-04-07T09:58:25.149Z,6.85
2023-04-07T10:03:28.283Z,7.13
2023-04-07T10:08:36.308Z,6.90
2023-04-07T10:13:40.770Z,6.70
2023-04-07T10:18:42.834Z,7.20
2023-04-07T10:23:59.986Z,11.65
2023-04-07T10:29:08.391Z,10.88
2023-04-07T10:34:10.035Z,10.77
2023-04-07T10:39:11.824Z,11.20
2023-04-07T10:44:43.060Z,10.35
2023-04-07T10:50:18.231Z,10.13
2023-04-07T10:55:39.182Z,11.98
2023-04-07T11:00:41.657Z,11.60
2023-04-07T11:05:43.633Z,10.32
2023-04-07T11:10:48.255Z,10.25
2023-04-07T11:15:53.928Z,9.43
2023-04-07T11:21:00.182Z,9.38
2023-04-07T11:26:03.176Z,9.52
2023-04-07T11:31:04.980Z,8.88
2023-04-07T11:36:07.664Z,8.98
2023-04-07T11:41:16.024Z,9.25
2023-04-07T11:46:18.940Z,8.75
2023-04-07T11:51:25.283Z,8.23
2023-04-07T11:56:28.086Z,9.15
2023-04-07T12:01:41.450Z,8.82
2023-04-07T12:06:44.866Z,8.70
2023-04-07T12:11:50.250Z,8.75
2023-04-07T12:16:53.357Z,9.32
2023-04-07T12:21:56.365Z,8.68
2023-04-07T12:26:58.233Z,9.75
2023-04-07T12:32:00.795Z,9.88
2023-04-07T12:37:02.454Z,9.00
2023-04-07T12:42:05.214Z,9.25
2023-04-07T12:47:07.056Z,9.55
2023-04-07T12:52:08.949Z,10.35
2023-04-07T12:57:11.109Z,10.65
2023-04-07T13:02:13.930Z,9.88
2023-04-07T13:07:16.282Z,9.88
2023-04-07T13:12:17.922Z,10.57
2023-04-07T13:17:19.724Z,11.18
2023-04-07T13:22:24.326Z,10.25
2023-04-07T13:27:27.481Z,11.23
2023-04-07T13:32:29.306Z,11.48
2023-04-07T13:37:31.154Z,10.73
2023-04-07T13:42:33.027Z,12.45
2023-04-07T13:47:35.418Z,11.43
2023-04-07T13:52:37.514Z,13.38
2023-04-07T13:57:39.392Z,11.48
2023-04-07T14:02:41.388Z,12.27
2023-04-07T14:07:43.191Z,11.75
2023-04-07T14:12:45.110Z,10.93
2023-04-07T14:17:47.044Z,11.43
2023-04-07T14:22:48.795Z,9.63
2023-04-07T14:27:52.244Z,10.90
2023-04-07T14:32:53.963Z,9.10
2023-04-07T14:37:56.853Z,9.20
2023-04-07T14:48:04.113Z,8.52
2023-04-07T14:53:06.687Z,7.65
2023-04-07T14:58:08.551Z,7.53
2023-04-07T15:03:14.362Z,8.25
2023-04-07T15:08:19.434Z,9.35
2023-04-07T15:13:21.838Z,9.50
2023-04-07T15:18:25.203Z,9.52
2023-04-07T15:23:27.045Z,11.05
2023-04-07T15:28:32.701Z,9.88
2023-04-07T15:33:37.807Z,11.00
2023-04-07T15:38:40.839Z,10.60
2023-04-07T15:43:43.184Z,10.82
2023-04-07T15:48:46.165Z,10.70
2023-04-07T15:53:48.595Z,12.15
2023-04-07T15:58:51.073Z,11.98
2023-04-07T16:03:54.163Z,10.57
2023-04-07T16:08:56.965Z,11.90
2023-04-07T16:13:59.281Z,11.23
2023-04-07T16:19:02.453Z,11.43
2023-04-07T16:24:04.469Z,11.30
2023-04-07T16:29:06.574Z,11.90
2023-04-07T16:34:08.556Z,12.30
2023-04-07T16:39:10.795Z,13.25
2023-04-07T16:44:12.747Z,12.07
2023-04-07T16:49:14.524Z,13.18
2023-04-07T16:54:16.191Z,12.13
2023-04-07T16:59:17.859Z,13.93
2023-04-07T17:04:19.645Z,14.10
2023-04-07T17:09:21.494Z,14.48
2023-04-07T17:14:23.354Z,15.25
2023-04-07T17:19:25.189Z,15.68
2023-04-07T17:24:26.885Z,19.38
2023-04-07T17:29:31.246Z,18.38
2023-04-07T17:34:33.085Z,16.02
2023-04-07T17:39:34.966Z,14.52
2023-04-07T17:44:37.487Z,15.95
2023-04-07T17:49:39.701Z,14.55
2023-04-07T17:54:41.773Z,15.68
2023-04-07T17:59:43.526Z,15.95
2023-04-07T18:04:45.652Z,14.65
2023-04-07T18:09:47.721Z,14.30
2023-04-07T18:14:49.474Z,14.63
2023-04-07T18:19:51.548Z,11.63
2023-04-07T18:24:53.214Z,13.75
2023-04-07T18:29:56.212Z,13.65
2023-04-07T18:34:57.965Z,13.00
2023-04-07T18:39:59.659Z,15.77
2023-04-07T18:45:01.542Z,12.93
2023-04-07T18:50:03.600Z,16.20
2023-04-07T18:55:06.060Z,15.15
2023-04-07T19:00:08.728Z,13.75
2023-04-07T19:05:13.498Z,12.80
2023-04-07T19:10:15.098Z,16.88
2023-04-07T19:15:16.810Z,15.85
2023-04-07T19:20:18.550Z,13.30
2023-04-07T19:25:20.395Z,13.75
2023-04-07T19:30:22.244Z,14.15
2023-04-07T19:35:23.909Z,12.48
2023-04-07T19:40:26.117Z,13.38
2023-04-07T19:45:27.847Z,13.65
2023-04-07T19:50:29.570Z,12.88
2023-04-07T19:55:31.217Z,14.57
2023-04-07T20:00:35.002Z,12.35
2023-04-07T20:05:37.178Z,12.55
2023-04-07T20:10:39.164Z,15.25
2023-04-07T20:15:41.012Z,15.10
2023-04-07T20:20:42.616Z,20.88
2023-04-07T20:25:44.421Z,17.27
2023-04-07T20:30:46.380Z,14.05
2023-04-07T20:35:49.084Z,18.42
2023-04-07T20:40:51.133Z,14.75
2023-04-07T20:45:53.521Z,13.88
2023-04-07T20:50:55.206Z,16.05
2023-04-07T20:55:59.044Z,16.17
2023-04-07T21:01:01.554Z,17.20
2023-04-07T21:06:04.746Z,18.48
2023-04-07T21:11:06.524Z,19.98
2023-04-07T21:16:08.662Z,20.40
2023-04-07T21:21:10.380Z,25.98
2023-04-07T21:26:12.068Z,29.77
2023-04-07T21:31:24.160Z,57.90
2023-04-07T21:36:27.016Z,34.53
2023-04-07T21:41:28.679Z,26.27
2023-04-07T21:46:30.893Z,24.17
2023-04-07T21:51:33.733Z,26.50
2023-04-07T21:56:35.840Z,25.25
2023-04-07T22:01:37.636Z,25.55
2023-04-07T22:06:39.605Z,31.70
2023-04-07T22:11:41.396Z,34.92
2023-04-07T22:16:43.127Z,32.83
2023-04-07T22:21:45.355Z,32.15
2023-04-07T22:26:47.000Z,36.05
2023-04-07T22:31:48.805Z,38.08
2023-04-07T22:36:50.528Z,39.08
2023-04-07T22:41:52.113Z,39.28
2023-04-07T22:46:54.021Z,37.28
2023-04-07T22:51:57.103Z,35.17
2023-04-07T22:56:58.918Z,36.63
2023-04-07T23:02:00.843Z,39.75
2023-04-07T23:07:02.746Z,36.78
2023-04-07T23:12:04.514Z,36.85
2023-04-07T23:17:06.776Z,19.42
2023-04-07T23:22:08.585Z,17.30
2023-04-07T23:27:10.387Z,9.57
2023-04-07T23:32:12.244Z,7.10
2023-04-07T23:37:21.295Z,5.07
2023-04-07T23:42:24.164Z,5.55
2023-04-07T23:47:26.408Z,5.93
2023-04-07T23:52:28.254Z,5.80
2023-04-07T23:57:30.061Z,6.53
